createdAt,value
2018-06-19T00:00:48.701Z,19.99
2018-06-19T00:02:41.581Z,20.05
2018-06-19T00:03:41.469Z,20.05
2018-06-19T00:05:34.356Z,20.05
2018-06-19T00:06:34.287Z,20.04
2018-06-19T00:08:27.176Z,20.08
2018-06-19T00:09:27.051Z,20.09
2018-06-19T00:11:20.007Z,20.02
2018-06-19T00:12:19.917Z,20.09
2018-06-19T00:14:13.280Z,20.05
2018-06-19T00:15:12.768Z,20.05
2018-06-19T00:17:06.157Z,19.97
2018-06-19T00:18:06.038Z,20.04
2018-06-19T00:19:58.894Z,20.08
2018-06-19T00:20:58.816Z,19.94
2018-06-19T00:22:51.622Z,19.99
2018-06-19T00:23:51.536Z,20.07
2018-06-19T00:25:44.416Z,19.93
2018-06-19T00:26:44.270Z,19.97
2018-06-19T00:28:37.115Z,19.92
2018-06-19T00:29:37.024Z,19.87
2018-06-19T00:31:29.907Z,19.92
2018-06-19T00:32:29.776Z,19.86
2018-06-19T00:34:22.616Z,19.93
2018-06-19T00:35:22.522Z,19.90
2018-06-19T00:37:15.607Z,19.89
2018-06-19T00:38:15.502Z,19.92
2018-06-19T00:40:08.870Z,19.89
2018-06-19T00:41:08.645Z,19.78
2018-06-19T00:43:01.476Z,19.93
2018-06-19T00:44:01.379Z,19.90
2018-06-19T00:45:54.244Z,19.89
2018-06-19T00:46:54.209Z,19.84
2018-06-19T00:48:48.059Z,19.87
2018-06-19T00:49:46.958Z,19.79
2018-06-19T00:51:40.315Z,19.84
2018-06-19T00:52:39.745Z,19.75
2018-06-19T00:54:32.666Z,19.78
2018-06-19T00:55:32.572Z,19.74
2018-06-19T00:57:25.273Z,19.77
2018-06-19T00:58:25.154Z,19.74
2018-06-19T01:00:18.522Z,19.63
2018-06-19T01:01:18.429Z,19.63
2018-06-19T01:03:11.233Z,19.64
2018-06-19T01:04:11.146Z,19.60
2018-06-19T01:06:04.039Z,19.62
2018-06-19T01:07:03.940Z,19.56
2018-06-19T01:08:56.775Z,19.47
2018-06-19T01:09:56.650Z,19.52
2018-06-19T01:11:50.077Z,19.47
2018-06-19T01:12:50.240Z,19.45
2018-06-19T01:14:42.880Z,19.45
2018-06-19T01:15:42.802Z,19.26
2018-06-19T01:17:35.611Z,19.34
2018-06-19T01:18:35.486Z,19.31
2018-06-19T01:20:28.762Z,19.27
2018-06-19T01:21:28.175Z,19.23
2018-06-19T01:23:21.424Z,19.19
2018-06-19T01:24:21.339Z,19.20
2018-06-19T01:26:14.186Z,19.20
2018-06-19T01:27:14.057Z,19.16
2018-06-19T01:29:07.450Z,19.05
2018-06-19T01:30:06.839Z,19.07
2018-06-19T01:32:00.079Z,19.16
2018-06-19T01:32:59.978Z,19.12
2018-06-19T01:34:52.842Z,19.13
2018-06-19T01:35:52.741Z,19.16
2018-06-19T01:37:46.086Z,19.17
2018-06-19T01:38:45.473Z,19.19
2018-06-19T01:40:38.335Z,19.24
2018-06-19T01:41:38.220Z,19.22
2018-06-19T01:43:31.065Z,19.32
2018-06-19T01:44:31.008Z,19.26
2018-06-19T01:46:23.831Z,19.20
2018-06-19T01:47:23.719Z,19.22
2018-06-19T01:49:17.111Z,19.16
2018-06-19T01:50:16.485Z,19.22
2018-06-19T01:52:09.835Z,19.26
2018-06-19T01:53:09.218Z,19.20
2018-06-19T01:55:02.070Z,19.22
2018-06-19T01:56:01.983Z,19.19
2018-06-19T01:57:54.820Z,19.15
2018-06-19T01:58:54.717Z,19.13
2018-06-19T02:00:47.483Z,19.09
2018-06-19T02:01:47.366Z,19.05
2018-06-19T02:03:40.217Z,19.04
2018-06-19T02:04:40.110Z,19.05
2018-06-19T02:06:32.874Z,19.00
2018-06-19T02:07:32.777Z,18.96
2018-06-19T02:09:25.594Z,18.89
2018-06-19T02:10:25.509Z,19.00
2018-06-19T02:12:18.390Z,18.98
2018-06-19T02:13:18.411Z,18.79
2018-06-19T02:15:11.230Z,18.82
2018-06-19T02:16:11.009Z,18.94
2018-06-19T02:18:03.918Z,18.81
2018-06-19T02:19:03.757Z,18.89
2018-06-19T02:20:56.604Z,18.93
2018-06-19T02:21:56.527Z,18.85
2018-06-19T02:23:49.846Z,18.91
2018-06-19T02:24:49.934Z,18.86
2018-06-19T02:26:42.523Z,18.91
2018-06-19T02:27:42.412Z,18.85
2018-06-19T02:29:35.829Z,18.83
2018-06-19T02:30:35.190Z,18.86
2018-06-19T02:32:28.011Z,18.85
2018-06-19T02:33:27.928Z,18.79
2018-06-19T02:35:21.782Z,18.79
2018-06-19T02:36:21.607Z,18.79
2018-06-19T02:38:14.474Z,18.81
2018-06-19T02:39:14.334Z,18.75
2018-06-19T02:41:07.712Z,18.63
2018-06-19T02:42:07.100Z,18.61
2018-06-19T02:43:59.949Z,18.54
2018-06-19T02:44:59.829Z,18.67
2018-06-19T02:46:52.701Z,18.58
2018-06-19T02:47:52.578Z,18.49
2018-06-19T02:49:45.461Z,18.49
2018-06-19T02:50:45.335Z,18.49
2018-06-19T02:52:38.183Z,18.58
2018-06-19T02:53:38.082Z,18.52
2018-06-19T02:55:31.484Z,18.49
2018-06-19T02:56:30.843Z,18.56
2018-06-19T02:58:23.716Z,18.51
2018-06-19T02:59:23.597Z,18.56
2018-06-19T03:01:16.345Z,18.48
2018-06-19T03:02:16.233Z,18.49
2018-06-19T03:04:09.596Z,18.34
2018-06-19T03:05:08.985Z,18.31
2018-06-19T03:07:01.843Z,18.24
2018-06-19T03:08:01.741Z,18.33
2018-06-19T03:09:54.587Z,18.30
2018-06-19T03:10:54.477Z,18.26
2018-06-19T03:12:47.374Z,18.23
2018-06-19T03:13:47.248Z,18.21
2018-06-19T03:15:39.992Z,18.15
2018-06-19T03:16:39.918Z,18.08
2018-06-19T03:18:32.817Z,18.09
2018-06-19T03:19:32.786Z,18.17
2018-06-19T03:21:25.500Z,18.09
2018-06-19T03:22:25.408Z,17.96
2018-06-19T03:24:18.290Z,18.08
2018-06-19T03:25:18.214Z,17.99
2018-06-19T03:27:10.971Z,17.96
2018-06-19T03:28:11.320Z,17.90
2018-06-19T03:30:03.812Z,17.83
2018-06-19T03:31:03.621Z,17.94
2018-06-19T03:32:57.002Z,17.93
2018-06-19T03:33:56.391Z,17.91
2018-06-19T03:35:49.153Z,17.84
2018-06-19T03:36:49.045Z,17.86
2018-06-19T03:38:41.895Z,17.88
2018-06-19T03:39:41.799Z,17.78
2018-06-19T03:41:34.623Z,17.88
2018-06-19T03:42:34.533Z,17.83
2018-06-19T03:44:27.268Z,17.86
2018-06-19T03:45:27.177Z,17.83
2018-06-19T03:47:20.536Z,17.90
2018-06-19T03:48:19.945Z,17.83
2018-06-19T03:50:12.681Z,17.78
2018-06-19T03:51:12.576Z,17.83
2018-06-19T03:53:05.435Z,17.86
2018-06-19T03:54:05.309Z,17.75
2018-06-19T03:55:58.071Z,17.90
2018-06-19T03:56:57.962Z,17.83
2018-06-19T03:58:51.312Z,17.97
2018-06-19T03:59:50.723Z,17.87
2018-06-19T04:01:44.102Z,17.83
2018-06-19T04:02:43.352Z,17.93
2018-06-19T04:04:36.102Z,17.91
2018-06-19T04:05:36.031Z,17.91
2018-06-19T04:07:28.932Z,17.94
2018-06-19T04:08:28.778Z,17.96
2018-06-19T04:10:21.651Z,17.96
2018-06-19T04:11:21.527Z,18.01
2018-06-19T04:13:14.424Z,17.96
2018-06-19T04:14:14.281Z,17.94
2018-06-19T04:16:07.634Z,17.96
2018-06-19T04:17:07.054Z,17.96
2018-06-19T04:18:59.845Z,17.94
2018-06-19T04:19:59.750Z,17.96
2018-06-19T04:21:52.517Z,17.93
2018-06-19T04:22:52.396Z,17.94
2018-06-19T04:24:45.805Z,17.97
2018-06-19T04:25:45.160Z,17.94
2018-06-19T04:27:41.088Z,17.99
2018-06-19T04:28:40.880Z,17.97
2018-06-19T04:30:35.274Z,18.06
2018-06-19T04:31:35.168Z,18.09
2018-06-19T04:33:28.039Z,18.06
2018-06-19T04:34:27.911Z,18.09
2018-06-19T04:36:20.771Z,18.17
2018-06-19T04:37:20.564Z,18.17
2018-06-19T04:39:13.293Z,18.21
2018-06-19T04:40:13.196Z,18.23
2018-06-19T04:42:06.068Z,18.15
2018-06-19T04:43:05.948Z,18.27
2018-06-19T04:44:59.726Z,18.26
2018-06-19T04:45:59.615Z,18.24
2018-06-19T04:47:52.561Z,18.28
2018-06-19T04:48:52.486Z,18.30
2018-06-19T04:50:45.846Z,18.28
2018-06-19T04:51:45.211Z,18.30
2018-06-19T04:53:37.965Z,18.33
2018-06-19T04:54:37.866Z,18.33
2018-06-19T04:56:32.181Z,18.33
2018-06-19T04:57:32.047Z,18.30
2018-06-19T04:59:24.893Z,18.49
2018-06-19T05:00:24.800Z,18.45
2018-06-19T05:02:18.124Z,18.45
2018-06-19T05:03:17.975Z,18.52
2018-06-19T05:05:13.824Z,18.52
2018-06-19T05:06:13.690Z,18.49
2018-06-19T05:08:06.544Z,18.51
2018-06-19T05:09:06.431Z,18.56
2018-06-19T05:10:59.349Z,18.52
2018-06-19T05:11:59.226Z,18.61
2018-06-19T05:13:52.533Z,18.64
2018-06-19T05:14:51.922Z,18.75
2018-06-19T05:16:45.265Z,18.66
2018-06-19T05:17:45.095Z,18.68
2018-06-19T05:19:37.956Z,18.81
2018-06-19T05:20:37.830Z,18.83
2018-06-19T05:22:31.203Z,18.82
2018-06-19T05:23:30.580Z,18.94
2018-06-19T05:25:23.526Z,19.04
2018-06-19T05:26:23.328Z,19.00
2018-06-19T05:28:16.177Z,19.09
2018-06-19T05:29:16.081Z,19.19
2018-06-19T05:31:09.479Z,19.30
2018-06-19T05:32:08.847Z,19.22
2018-06-19T05:34:01.679Z,19.32
2018-06-19T05:35:01.603Z,19.41
2018-06-19T05:36:54.975Z,19.41
2018-06-19T05:37:54.741Z,19.52
2018-06-19T05:39:47.595Z,19.59
2018-06-19T05:40:47.500Z,19.57
2018-06-19T05:42:40.353Z,19.67
2018-06-19T05:43:40.257Z,19.82
2018-06-19T05:45:33.676Z,19.93
2018-06-19T05:46:32.906Z,20.04
2018-06-19T05:48:26.245Z,20.08
2018-06-19T05:49:25.645Z,20.09
2018-06-19T05:51:18.492Z,20.15
2018-06-19T05:52:18.390Z,20.04
2018-06-19T05:54:11.225Z,20.02
2018-06-19T05:55:11.152Z,20.11
2018-06-19T05:57:04.025Z,20.14
2018-06-19T05:58:03.895Z,20.19
2018-06-19T05:59:57.186Z,20.27
2018-06-19T06:00:57.045Z,20.25
2018-06-19T06:02:49.909Z,20.26
2018-06-19T06:03:49.801Z,20.26
2018-06-19T06:05:42.703Z,20.33
2018-06-19T06:06:42.557Z,20.30
2018-06-19T06:08:35.378Z,20.34
2018-06-19T06:09:35.289Z,20.39
2018-06-19T06:11:28.147Z,20.36
2018-06-19T06:12:28.043Z,20.46
2018-06-19T06:14:20.882Z,20.39
2018-06-19T06:15:20.811Z,20.39
2018-06-19T06:17:13.662Z,20.36
2018-06-19T06:18:13.593Z,20.34
2018-06-19T06:20:06.399Z,20.34
2018-06-19T06:21:06.308Z,20.39
2018-06-19T06:22:59.160Z,20.39
2018-06-19T06:23:59.147Z,20.46
2018-06-19T06:25:51.905Z,20.50
2018-06-19T06:26:51.838Z,20.52
2018-06-19T06:28:44.630Z,20.52
2018-06-19T06:29:44.543Z,20.56
2018-06-19T06:31:37.413Z,20.60
2018-06-19T06:32:37.302Z,20.61
2018-06-19T06:34:30.137Z,20.63
2018-06-19T06:35:30.044Z,20.63
2018-06-19T06:37:22.904Z,20.58
2018-06-19T06:38:22.783Z,20.67
2018-06-19T06:40:16.203Z,20.63
2018-06-19T06:41:15.567Z,20.60
2018-06-19T06:43:08.399Z,20.63
2018-06-19T06:44:08.287Z,20.58
2018-06-19T06:46:01.164Z,20.64
2018-06-19T06:47:01.052Z,20.77
2018-06-19T06:48:53.891Z,20.58
2018-06-19T06:49:53.787Z,20.64
2018-06-19T06:51:46.637Z,20.60
2018-06-19T06:52:46.546Z,20.56
2018-06-19T06:54:39.422Z,20.65
2018-06-19T06:55:39.289Z,20.58
2018-06-19T06:57:32.649Z,20.68
2018-06-19T06:58:32.056Z,20.82
2018-06-19T07:00:24.883Z,20.83
2018-06-19T07:01:24.789Z,20.89
2018-06-19T07:03:17.639Z,20.83
2018-06-19T07:04:17.542Z,20.88
2018-06-19T07:06:10.420Z,21.00
2018-06-19T07:07:10.315Z,21.01
2018-06-19T07:09:03.165Z,21.20
2018-06-19T07:10:03.064Z,21.05
2018-06-19T07:11:55.891Z,21.16
2018-06-19T07:12:55.800Z,21.11
2018-06-19T07:14:49.063Z,21.22
2018-06-19T07:15:48.964Z,21.28
2018-06-19T07:17:42.312Z,21.25
2018-06-19T07:18:41.699Z,21.34
2018-06-19T07:20:34.671Z,21.41
2018-06-19T07:21:34.561Z,21.35
2018-06-19T07:23:27.404Z,21.35
2018-06-19T07:24:27.313Z,21.40
2018-06-19T07:26:20.665Z,21.67
2018-06-19T07:27:20.056Z,21.73
2018-06-19T07:29:12.909Z,21.81
2018-06-19T07:30:12.787Z,21.77
2018-06-19T07:32:05.692Z,21.85
2018-06-19T07:33:05.560Z,21.94
2018-06-19T07:34:58.408Z,21.80
2018-06-19T07:35:58.312Z,21.74
2018-06-19T07:37:51.186Z,21.67
2018-06-19T07:38:51.042Z,21.58
2018-06-19T07:40:43.890Z,21.43
2018-06-19T07:41:43.814Z,21.30
2018-06-19T07:43:36.642Z,21.55
2018-06-19T07:44:36.542Z,21.60
2018-06-19T07:46:29.451Z,21.80
2018-06-19T07:47:29.302Z,21.69
2018-06-19T07:49:22.132Z,21.62
2018-06-19T07:50:22.060Z,21.59
2018-06-19T07:52:15.407Z,21.62
2018-06-19T07:53:14.816Z,21.65
2018-06-19T07:55:08.554Z,21.73
2018-06-19T07:56:08.490Z,21.75
2018-06-19T07:58:01.311Z,21.69
2018-06-19T07:59:01.214Z,21.74
2018-06-19T08:00:54.568Z,21.71
2018-06-19T08:01:53.966Z,21.75
2018-06-19T08:03:46.817Z,21.77
2018-06-19T08:04:46.719Z,21.66
2018-06-19T08:06:39.564Z,21.34
2018-06-19T08:07:39.467Z,21.34
2018-06-19T08:09:33.240Z,21.67
2018-06-19T08:10:33.149Z,21.73
2018-06-19T08:12:25.982Z,21.67
2018-06-19T08:13:25.938Z,21.55
2018-06-19T08:15:18.773Z,21.47
2018-06-19T08:16:18.665Z,21.47
2018-06-19T08:18:11.501Z,21.65
2018-06-19T08:19:11.442Z,21.59
2018-06-19T08:21:04.239Z,21.60
2018-06-19T08:22:04.138Z,21.65
2018-06-19T08:23:57.018Z,21.66
2018-06-19T08:24:56.895Z,21.59
2018-06-19T08:26:49.724Z,21.58
2018-06-19T08:27:49.643Z,21.56
2018-06-19T08:29:42.498Z,21.45
2018-06-19T08:30:42.390Z,21.50
2018-06-19T08:32:36.647Z,21.44
2018-06-19T08:33:36.576Z,21.58
2018-06-19T08:35:29.413Z,21.96
2018-06-19T08:36:29.321Z,21.97
2018-06-19T08:38:22.149Z,22.00
2018-06-19T08:39:22.056Z,22.00
2018-06-19T08:41:14.918Z,21.96
2018-06-19T08:42:14.814Z,22.01
2018-06-19T08:44:07.659Z,22.21
2018-06-19T08:45:07.569Z,22.40
2018-06-19T08:47:00.423Z,22.55
2018-06-19T08:48:00.371Z,22.68
2018-06-19T08:49:53.166Z,22.76
2018-06-19T08:50:53.066Z,22.53
2018-06-19T08:52:45.907Z,22.37
2018-06-19T08:53:45.815Z,22.06
2018-06-19T08:55:38.653Z,22.49
2018-06-19T08:56:38.562Z,22.48
2018-06-19T08:58:31.465Z,22.43
2018-06-19T08:59:31.336Z,22.41
2018-06-19T09:01:24.162Z,22.40
2018-06-19T09:02:24.058Z,22.51
2018-06-19T09:04:16.921Z,22.68
2018-06-19T09:05:16.810Z,22.62
2018-06-19T09:07:09.666Z,22.46
2018-06-19T09:08:09.681Z,22.52
2018-06-19T09:10:03.485Z,22.78
2018-06-19T09:11:03.348Z,23.03
2018-06-19T09:12:56.177Z,23.06
2018-06-19T09:13:56.093Z,23.14
2018-06-19T09:15:48.995Z,23.11
2018-06-19T09:16:48.853Z,23.18
2018-06-19T09:18:41.739Z,22.83
2018-06-19T09:19:41.593Z,22.76
2018-06-19T09:21:34.847Z,22.67
2018-06-19T09:22:34.740Z,22.59
2018-06-19T09:24:27.589Z,22.64
2018-06-19T09:25:27.501Z,22.71
2018-06-19T09:27:20.350Z,22.61
2018-06-19T09:28:20.250Z,22.38
2018-06-19T09:30:13.115Z,22.46
2018-06-19T09:31:12.990Z,22.52
2018-06-19T09:33:05.863Z,22.74
2018-06-19T09:34:05.749Z,22.95
2018-06-19T09:35:58.600Z,23.17
2018-06-19T09:36:58.493Z,23.37
2018-06-19T09:38:51.860Z,23.81
2018-06-19T09:39:51.391Z,23.63
2018-06-19T09:41:44.096Z,23.63
2018-06-19T09:42:43.996Z,23.46
2018-06-19T09:44:36.844Z,23.23
2018-06-19T09:45:36.737Z,23.21
2018-06-19T09:47:29.594Z,23.28
2018-06-19T09:48:29.507Z,23.59
2018-06-19T09:50:22.347Z,23.42
2018-06-19T09:51:22.247Z,23.41
2018-06-19T09:53:15.119Z,23.63
2018-06-19T09:54:15.012Z,23.52
2018-06-19T09:56:07.867Z,23.56
2018-06-19T09:57:07.751Z,23.52
2018-06-19T09:59:00.694Z,23.52
2018-06-19T10:00:00.515Z,23.78
2018-06-19T10:01:53.843Z,23.69
2018-06-19T10:02:53.751Z,23.26
2018-06-19T10:04:46.619Z,23.29
2018-06-19T10:05:46.575Z,23.25
2018-06-19T10:07:39.798Z,22.78
2018-06-19T10:08:39.681Z,22.92
2018-06-19T10:10:32.512Z,23.04
2018-06-19T10:11:32.408Z,22.91
2018-06-19T10:13:25.272Z,23.14
2018-06-19T10:14:25.178Z,23.33
2018-06-19T10:16:18.014Z,23.45
2018-06-19T10:17:17.924Z,23.52
2018-06-19T10:19:10.863Z,23.31
2018-06-19T10:20:10.751Z,23.49
2018-06-19T10:22:03.637Z,23.92
2018-06-19T10:23:03.515Z,23.94
2018-06-19T10:24:56.380Z,24.01
2018-06-19T10:25:56.276Z,23.96
2018-06-19T10:27:49.125Z,23.54
2018-06-19T10:28:49.031Z,23.66
2018-06-19T10:30:42.250Z,23.70
2018-06-19T10:31:42.173Z,23.60
2018-06-19T10:33:35.039Z,23.63
2018-06-19T10:34:34.929Z,23.74
2018-06-19T10:36:27.780Z,24.04
2018-06-19T10:37:27.691Z,23.84
2018-06-19T10:39:21.951Z,23.92
2018-06-19T10:40:21.860Z,23.85
2018-06-19T10:42:15.097Z,23.66
2018-06-19T10:43:15.024Z,23.76
2018-06-19T10:45:08.304Z,23.74
2018-06-19T10:46:08.211Z,23.69
2018-06-19T10:48:01.031Z,23.60
2018-06-19T10:49:00.954Z,23.63
2018-06-19T10:50:53.762Z,23.61
2018-06-19T10:51:53.661Z,23.64
2018-06-19T10:53:46.526Z,23.89
2018-06-19T10:54:46.433Z,23.81
2018-06-19T10:56:39.281Z,24.11
2018-06-19T10:57:39.183Z,24.21
2018-06-19T10:59:32.023Z,24.16
2018-06-19T11:00:31.918Z,24.22
2018-06-19T11:02:24.753Z,24.22
2018-06-19T11:03:24.667Z,24.28
2018-06-19T11:05:18.101Z,23.64
2018-06-19T11:06:17.924Z,23.88
2018-06-19T11:08:12.301Z,24.40
2018-06-19T11:09:12.191Z,24.63
2018-06-19T11:11:04.991Z,24.66
2018-06-19T11:12:04.887Z,24.74
2018-06-19T11:13:57.729Z,24.70
2018-06-19T11:14:57.619Z,24.71
2018-06-19T11:16:50.471Z,24.29
2018-06-19T11:17:50.385Z,24.48
2018-06-19T11:19:43.233Z,24.70
2018-06-19T11:20:43.216Z,24.82
2018-06-19T11:22:35.948Z,24.53
2018-06-19T11:23:35.901Z,24.44
2018-06-19T11:25:29.228Z,24.43
2018-06-19T11:26:29.131Z,24.34
2018-06-19T11:28:21.990Z,24.28
2018-06-19T11:29:21.871Z,24.29
2018-06-19T11:31:14.712Z,24.13
2018-06-19T11:32:14.628Z,23.92
2018-06-19T11:34:07.490Z,24.23
2018-06-19T11:35:07.413Z,24.25
2018-06-19T11:37:00.765Z,24.33
2018-06-19T11:38:00.156Z,24.13
2018-06-19T11:39:53.504Z,24.07
2018-06-19T11:40:52.866Z,24.13
2018-06-19T11:42:45.709Z,24.13
2018-06-19T11:43:45.637Z,24.33
2018-06-19T11:45:38.469Z,23.85
2018-06-19T11:46:38.383Z,23.82
2018-06-19T11:48:31.742Z,23.82
2018-06-19T11:49:31.150Z,23.82
2018-06-19T11:51:24.084Z,23.71
2018-06-19T11:52:23.885Z,23.73
2018-06-19T11:54:16.747Z,23.70
2018-06-19T11:55:16.632Z,23.84
2018-06-19T11:57:09.475Z,23.92
2018-06-19T11:58:09.366Z,23.60
2018-06-19T12:00:02.738Z,24.10
2018-06-19T12:01:02.652Z,24.36
2018-06-19T12:02:56.018Z,24.38
2018-06-19T12:03:55.380Z,24.68
2018-06-19T12:05:48.219Z,25.11
2018-06-19T12:06:48.166Z,25.09
2018-06-19T12:08:41.087Z,25.30
2018-06-19T12:09:40.999Z,25.36
2018-06-19T12:11:34.349Z,25.38
2018-06-19T12:12:33.738Z,25.73
2018-06-19T12:14:26.616Z,25.55
2018-06-19T12:15:26.489Z,25.59
2018-06-19T12:17:19.331Z,25.58
2018-06-19T12:18:19.275Z,25.89
2018-06-19T12:20:12.151Z,25.51
2018-06-19T12:21:12.018Z,25.11
2018-06-19T12:23:05.373Z,25.49
2018-06-19T12:24:05.327Z,25.38
2018-06-19T12:25:58.113Z,25.67
2018-06-19T12:26:58.003Z,25.68
2018-06-19T12:28:50.857Z,25.93
2018-06-19T12:29:50.770Z,25.77
2018-06-19T12:31:44.627Z,25.74
2018-06-19T12:32:44.430Z,25.77
2018-06-19T12:34:37.259Z,25.46
2018-06-19T12:35:37.173Z,25.41
2018-06-19T12:37:30.027Z,25.28
2018-06-19T12:38:29.929Z,25.36
2018-06-19T12:40:22.762Z,24.82
2018-06-19T12:41:22.672Z,24.82
2018-06-19T12:43:15.506Z,24.85
2018-06-19T12:44:15.419Z,24.79
2018-06-19T12:46:08.275Z,24.44
2018-06-19T12:47:08.180Z,24.44
2018-06-19T12:49:01.530Z,24.47
2018-06-19T12:50:00.912Z,24.56
2018-06-19T12:51:53.756Z,24.70
2018-06-19T12:52:53.674Z,24.56
2018-06-19T12:54:46.524Z,24.38
2018-06-19T12:55:46.428Z,24.48
2018-06-19T12:57:39.245Z,24.23
2018-06-19T12:58:39.175Z,24.33
2018-06-19T13:00:32.019Z,24.37
2018-06-19T13:01:31.920Z,24.13
2018-06-19T13:03:25.252Z,23.96
2018-06-19T13:04:24.687Z,23.92
2018-06-19T13:06:17.506Z,23.73
2018-06-19T13:07:17.419Z,23.46
2018-06-19T13:09:10.270Z,23.33
2018-06-19T13:10:10.151Z,23.39
2018-06-19T13:12:03.027Z,23.64
2018-06-19T13:13:02.904Z,23.33
2018-06-19T13:14:55.755Z,23.36
2018-06-19T13:15:55.650Z,23.25
2018-06-19T13:17:48.502Z,23.37
2018-06-19T13:18:48.398Z,23.36
2018-06-19T13:20:41.254Z,23.56
2018-06-19T13:21:41.163Z,23.66
2018-06-19T13:23:34.063Z,23.46
2018-06-19T13:24:33.908Z,23.45
2018-06-19T13:26:26.956Z,23.14
2018-06-19T13:27:26.863Z,23.15
2018-06-19T13:29:19.743Z,22.73
2018-06-19T13:30:19.614Z,22.48
2018-06-19T13:32:12.470Z,22.46
2018-06-19T13:33:12.448Z,22.46
2018-06-19T13:35:05.731Z,22.46
2018-06-19T13:36:05.147Z,22.58
2018-06-19T13:37:57.967Z,22.76
2018-06-19T13:38:57.867Z,22.70
2018-06-19T13:40:50.758Z,22.73
2018-06-19T13:41:50.612Z,22.71
2018-06-19T13:43:43.700Z,22.85
2018-06-19T13:44:43.555Z,22.88
2018-06-19T13:46:36.406Z,22.53
2018-06-19T13:47:36.301Z,22.48
2018-06-19T13:49:29.211Z,22.37
2018-06-19T13:50:29.055Z,22.33
2018-06-19T13:52:22.428Z,22.28
2018-06-19T13:53:21.820Z,22.44
2018-06-19T13:55:14.671Z,22.46
2018-06-19T13:56:14.565Z,22.44
2018-06-19T13:58:07.397Z,22.49
2018-06-19T13:59:07.304Z,22.49
2018-06-19T14:01:00.190Z,22.38
2018-06-19T14:02:00.123Z,22.49
2018-06-19T14:03:52.897Z,22.61
2018-06-19T14:04:52.817Z,22.66
2018-06-19T14:06:45.657Z,22.64
2018-06-19T14:07:45.823Z,22.49
2018-06-19T14:09:38.422Z,22.46
2018-06-19T14:10:38.318Z,22.44
2018-06-19T14:12:31.174Z,22.40
2018-06-19T14:13:31.050Z,22.33
2018-06-19T14:15:23.889Z,22.36
2018-06-19T14:16:23.803Z,22.38
2018-06-19T14:18:16.874Z,22.22
2018-06-19T14:19:16.872Z,22.22
2018-06-19T14:21:09.649Z,22.22
2018-06-19T14:22:09.515Z,22.31
2018-06-19T14:24:02.356Z,22.27
2018-06-19T14:25:02.248Z,22.33
2018-06-19T14:26:55.109Z,22.40
2018-06-19T14:27:54.998Z,22.34
2018-06-19T14:29:48.870Z,22.34
2018-06-19T14:30:48.272Z,22.27
2018-06-19T14:32:41.123Z,22.22
2018-06-19T14:33:41.027Z,22.21
2018-06-19T14:35:33.888Z,22.30
2018-06-19T14:36:33.757Z,22.44
2018-06-19T14:38:26.632Z,22.58
2018-06-19T14:39:26.581Z,22.53
2018-06-19T14:41:19.385Z,22.66
2018-06-19T14:42:19.268Z,22.61
2018-06-19T14:44:12.118Z,22.64
2018-06-19T14:45:12.029Z,22.77
2018-06-19T14:47:04.888Z,23.10
2018-06-19T14:48:04.773Z,23.25
2018-06-19T14:49:58.154Z,23.42
2018-06-19T14:50:57.514Z,23.60
2018-06-19T14:52:50.979Z,23.56
2018-06-19T14:53:50.894Z,23.46
2018-06-19T14:55:44.760Z,23.52
2018-06-19T14:56:44.142Z,23.55
2018-06-19T14:58:36.971Z,23.45
2018-06-19T14:59:36.886Z,23.39
2018-06-19T15:01:29.741Z,23.14
2018-06-19T15:02:29.631Z,23.14
2018-06-19T15:04:22.487Z,22.99
2018-06-19T15:05:22.399Z,23.07
2018-06-19T15:07:16.777Z,22.96
2018-06-19T15:08:16.667Z,23.03
2018-06-19T15:10:11.037Z,23.07
2018-06-19T15:11:10.864Z,23.01
2018-06-19T15:13:03.720Z,22.96
2018-06-19T15:14:03.622Z,23.06
2018-06-19T15:15:56.476Z,23.07
2018-06-19T15:16:56.347Z,23.01
2018-06-19T15:18:49.192Z,22.74
2018-06-19T15:19:49.114Z,22.73
2018-06-19T15:21:41.969Z,22.77
2018-06-19T15:22:41.849Z,22.96
2018-06-19T15:24:34.702Z,22.95
2018-06-19T15:25:34.625Z,22.88
2018-06-19T15:27:27.462Z,22.68
2018-06-19T15:28:27.348Z,22.64
2018-06-19T15:30:20.190Z,22.52
2018-06-19T15:31:20.113Z,22.41
2018-06-19T15:33:12.973Z,22.52
2018-06-19T15:34:13.526Z,22.62
2018-06-19T15:36:05.718Z,22.56
2018-06-19T15:37:05.606Z,22.61
2018-06-19T15:38:58.451Z,22.81
2018-06-19T15:39:58.355Z,22.91
2018-06-19T15:41:51.210Z,22.92
2018-06-19T15:42:51.090Z,22.77
2018-06-19T15:44:43.949Z,22.89
2018-06-19T15:45:43.869Z,22.70
2018-06-19T15:47:36.716Z,22.73
2018-06-19T15:48:36.606Z,22.68
2018-06-19T15:50:29.428Z,22.64
2018-06-19T15:51:29.337Z,22.53
2018-06-19T15:53:22.208Z,22.49
2018-06-19T15:54:22.096Z,22.53
2018-06-19T15:56:14.959Z,22.56
2018-06-19T15:57:14.866Z,22.59
2018-06-19T15:59:07.674Z,22.59
2018-06-19T16:00:07.598Z,22.52
2018-06-19T16:02:00.487Z,22.49
2018-06-19T16:03:00.348Z,22.48
2018-06-19T16:04:53.206Z,22.53
2018-06-19T16:05:53.091Z,22.56
2018-06-19T16:07:45.969Z,22.49
2018-06-19T16:08:45.855Z,22.41
2018-06-19T16:10:38.696Z,22.46
2018-06-19T16:11:38.591Z,22.51
2018-06-19T16:13:31.480Z,22.52
2018-06-19T16:14:31.467Z,22.56
2018-06-19T16:16:24.206Z,22.52
2018-06-19T16:17:24.105Z,22.48
2018-06-19T16:19:19.902Z,22.43
2018-06-19T16:20:19.812Z,22.46
2018-06-19T16:22:12.675Z,22.55
2018-06-19T16:23:12.560Z,22.52
2018-06-19T16:25:05.472Z,22.71
2018-06-19T16:26:05.306Z,22.76
2018-06-19T16:27:58.175Z,22.91
2018-06-19T16:28:58.061Z,22.91
2018-06-19T16:30:51.417Z,22.80
2018-06-19T16:31:51.339Z,22.76
2018-06-19T16:33:44.188Z,22.76
2018-06-19T16:34:44.084Z,22.68
2018-06-19T16:36:37.334Z,22.59
2018-06-19T16:37:37.285Z,22.64
2018-06-19T16:39:30.076Z,22.64
2018-06-19T16:40:29.974Z,22.59
2018-06-19T16:42:23.256Z,22.58
2018-06-19T16:43:23.137Z,22.62
2018-06-19T16:45:16.019Z,22.68
2018-06-19T16:46:15.886Z,22.85
2018-06-19T16:48:08.733Z,23.04
2018-06-19T16:49:08.649Z,22.91
2018-06-19T16:51:01.517Z,22.83
2018-06-19T16:52:01.387Z,22.95
2018-06-19T16:53:54.255Z,22.83
2018-06-19T16:54:54.140Z,22.80
2018-06-19T16:56:47.094Z,23.06
2018-06-19T16:57:46.976Z,22.99
2018-06-19T16:59:40.237Z,23.07
2018-06-19T17:00:40.146Z,23.07
2018-06-19T17:02:33.434Z,23.23
2018-06-19T17:03:33.311Z,23.15
2018-06-19T17:05:26.140Z,23.14
2018-06-19T17:06:26.079Z,23.04
2018-06-19T17:08:18.921Z,23.21
2018-06-19T17:09:18.836Z,23.28
2018-06-19T17:11:12.218Z,23.07
2018-06-19T17:12:11.553Z,22.99
2018-06-19T17:14:04.464Z,23.04
2018-06-19T17:15:04.304Z,22.93
2018-06-19T17:16:57.161Z,22.92
2018-06-19T17:17:57.053Z,22.80
2018-06-19T17:19:49.889Z,22.88
2018-06-19T17:20:49.808Z,22.88
2018-06-19T17:22:42.691Z,22.91
2018-06-19T17:23:42.575Z,22.74
2018-06-19T17:25:35.415Z,22.73
2018-06-19T17:26:35.305Z,22.68
2018-06-19T17:28:28.172Z,22.73
2018-06-19T17:29:28.050Z,22.92
2018-06-19T17:31:21.497Z,23.08
2018-06-19T17:32:21.316Z,23.03
2018-06-19T17:34:14.160Z,23.17
2018-06-19T17:35:14.131Z,23.06
2018-06-19T17:37:06.936Z,22.98
2018-06-19T17:38:06.809Z,22.99
2018-06-19T17:39:59.653Z,22.95
2018-06-19T17:40:59.621Z,22.91
2018-06-19T17:42:52.425Z,22.89
2018-06-19T17:43:52.317Z,22.85
2018-06-19T17:45:45.162Z,22.68
2018-06-19T17:46:45.074Z,22.67
2018-06-19T17:48:37.921Z,22.77
2018-06-19T17:49:37.828Z,22.83
2018-06-19T17:51:30.681Z,22.81
2018-06-19T17:52:30.570Z,22.73
2018-06-19T17:54:23.401Z,22.70
2018-06-19T17:55:23.308Z,22.59
2018-06-19T17:57:16.167Z,22.61
2018-06-19T17:58:16.071Z,22.64
2018-06-19T18:00:08.912Z,22.49
2018-06-19T18:01:08.805Z,22.43
2018-06-19T18:03:01.667Z,22.44
2018-06-19T18:04:01.582Z,22.51
2018-06-19T18:05:54.409Z,22.49
2018-06-19T18:06:54.323Z,22.43
2018-06-19T18:08:47.191Z,22.34
2018-06-19T18:09:47.079Z,22.38
2018-06-19T18:11:40.431Z,22.44
2018-06-19T18:12:40.324Z,22.46
2018-06-19T18:14:33.679Z,22.36
2018-06-19T18:15:33.679Z,22.27
2018-06-19T18:17:30.395Z,22.21
2018-06-19T18:18:29.503Z,22.19
2018-06-19T18:20:23.184Z,22.09
2018-06-19T18:21:23.129Z,22.19
2018-06-19T18:23:15.953Z,22.27
2018-06-19T18:24:15.824Z,22.25
2018-06-19T18:26:08.661Z,22.19
2018-06-19T18:27:08.597Z,22.23
2018-06-19T18:29:01.418Z,22.21
2018-06-19T18:30:01.352Z,22.11
2018-06-19T18:31:54.181Z,22.06
2018-06-19T18:32:54.074Z,22.11